createdAt,value
2023-03-24T00:00:20.600Z,1001.21
2023-03-24T00:01:20.503Z,1001.21
2023-03-24T00:02:20.514Z,1001.15
2023-03-24T00:03:20.623Z,1001.17
2023-03-24T00:04:20.562Z,1001.15
2023-03-24T00:05:20.493Z,1001.20
2023-03-24T00:06:20.463Z,1001.16
2023-03-24T00:07:21.114Z,1001.16
2023-03-24T00:08:20.455Z,1001.11
2023-03-24T00:09:20.441Z,1001.08
2023-03-24T00:10:20.518Z,1001.06
2023-03-24T00:11:20.433Z,1001.10
2023-03-24T00:12:20.438Z,1001.09
2023-03-24T00:13:20.418Z,1001.07
2023-03-24T00:14:20.401Z,1001.02
2023-03-24T00:15:20.428Z,1001.00
2023-03-24T00:16:20.480Z,1000.96
2023-03-24T00:17:20.378Z,1000.98
2023-03-24T00:18:20.372Z,1000.90
2023-03-24T00:19:20.372Z,1000.90
2023-03-24T00:20:20.508Z,1000.91
2023-03-24T00:21:20.384Z,1000.93
2023-03-24T00:22:20.341Z,1000.91
2023-03-24T00:23:20.329Z,1000.92
2023-03-24T00:24:20.324Z,1000.87
2023-03-24T00:25:20.335Z,1000.88
2023-03-24T00:26:20.305Z,1000.82
2023-03-24T00:27:20.312Z,1000.83
2023-03-24T00:28:20.325Z,1000.79
2023-03-24T00:29:20.285Z,1000.79
2023-03-24T00:30:20.298Z,1000.76
2023-03-24T00:31:20.326Z,1000.74
2023-03-24T00:32:20.270Z,1000.73
2023-03-24T00:33:20.279Z,1000.76
2023-03-24T00:34:20.254Z,1000.69
2023-03-24T00:35:20.251Z,1000.72
2023-03-24T00:36:20.272Z,1000.70
2023-03-24T00:37:20.222Z,1000.66
2023-03-24T00:38:20.277Z,1000.66
2023-03-24T00:39:20.244Z,1000.68
2023-03-24T00:40:20.227Z,1000.65
2023-03-24T00:41:20.502Z,1000.70
2023-03-24T00:42:20.203Z,1000.68
2023-03-24T00:43:20.188Z,1000.68
2023-03-24T00:44:20.174Z,1000.64
2023-03-24T00:45:20.347Z,1000.66
2023-03-24T00:46:20.166Z,1000.62
2023-03-24T00:47:20.152Z,1000.63
2023-03-24T00:48:20.163Z,1000.63
2023-03-24T00:49:20.140Z,1000.62
2023-03-24T00:50:20.205Z,1000.53
2023-03-24T00:51:20.121Z,1000.55
2023-03-24T00:52:20.113Z,1000.56
2023-03-24T00:53:20.121Z,1000.59
2023-03-24T00:54:20.209Z,1000.54
2023-03-24T00:55:20.101Z,1000.52
2023-03-24T00:56:20.078Z,1000.55
2023-03-24T00:57:20.101Z,1000.53
2023-03-24T00:58:20.071Z,1000.50
2023-03-24T00:59:20.056Z,1000.55
2023-03-24T01:00:20.056Z,1000.53
2023-03-24T01:01:20.086Z,1000.51
2023-03-24T01:02:20.061Z,1000.51
2023-03-24T01:03:20.044Z,1000.51
2023-03-24T01:04:20.217Z,1000.54
2023-03-24T01:05:20.009Z,1000.55
2023-03-24T01:06:20.019Z,1000.56
2023-03-24T01:07:19.991Z,1000.49
2023-03-24T01:08:19.988Z,1000.51
2023-03-24T01:09:19.974Z,1000.48
2023-03-24T01:10:19.966Z,1000.43
2023-03-24T01:11:19.958Z,1000.38
2023-03-24T01:12:19.949Z,1000.38
2023-03-24T01:13:19.948Z,1000.37
2023-03-24T01:14:19.936Z,1000.33
2023-03-24T01:15:19.930Z,1000.28
2023-03-24T01:16:19.966Z,1000.30
2023-03-24T01:17:19.908Z,1000.28
2023-03-24T01:18:19.898Z,1000.22
2023-03-24T01:19:19.894Z,1000.20
2023-03-24T01:20:19.886Z,1000.14
2023-03-24T01:21:19.878Z,1000.13
2023-03-24T01:22:19.872Z,1000.13
2023-03-24T01:23:19.873Z,1000.17
2023-03-24T01:24:19.853Z,1000.13
2023-03-24T01:25:19.889Z,1000.13
2023-03-24T01:26:19.854Z,1000.13
2023-03-24T01:27:19.829Z,1000.13
2023-03-24T01:28:19.822Z,1000.11
2023-03-24T01:29:19.816Z,1000.08
2023-03-24T01:30:19.833Z,1000.09
2023-03-24T01:31:19.818Z,1000.03
2023-03-24T01:32:19.915Z,1000.01
2023-03-24T01:33:19.783Z,1000.01
2023-03-24T01:34:19.774Z,999.97
2023-03-24T01:35:19.765Z,999.95
2023-03-24T01:36:19.777Z,999.91
2023-03-24T01:37:19.749Z,999.93
2023-03-24T01:38:19.754Z,999.93
2023-03-24T01:39:19.773Z,999.85
2023-03-24T01:40:19.728Z,999.85
2023-03-24T01:41:19.783Z,999.87
2023-03-24T01:42:19.712Z,999.83
2023-03-24T01:43:19.711Z,999.76
2023-03-24T01:44:19.693Z,999.74
2023-03-24T01:45:19.690Z,999.69
2023-03-24T01:46:19.730Z,999.66
2023-03-24T01:47:19.676Z,999.66
2023-03-24T01:48:19.673Z,999.60
2023-03-24T01:49:19.658Z,999.62
2023-03-24T01:50:19.652Z,999.54
2023-03-24T01:51:19.645Z,999.47
2023-03-24T01:52:19.638Z,999.45
2023-03-24T01:53:19.627Z,999.46
2023-03-24T01:54:19.643Z,999.53
2023-03-24T01:55:19.613Z,999.52
2023-03-24T01:56:19.604Z,999.49
2023-03-24T01:57:19.604Z,999.50
2023-03-24T01:58:19.592Z,999.48
2023-03-24T01:59:19.613Z,999.46
2023-03-24T02:00:19.592Z,999.41
2023-03-24T02:01:19.665Z,999.40
2023-03-24T02:02:19.557Z,999.40
2023-03-24T02:03:19.557Z,999.41
2023-03-24T02:04:19.602Z,999.38
2023-03-24T02:05:19.553Z,999.33
2023-03-24T02:06:19.528Z,999.37
2023-03-24T02:07:19.520Z,999.38
2023-03-24T02:08:19.513Z,999.37
2023-03-24T02:09:19.507Z,999.33
2023-03-24T02:10:19.499Z,999.30
2023-03-24T02:11:19.491Z,999.30
2023-03-24T02:12:19.483Z,999.26
2023-03-24T02:13:19.475Z,999.23
2023-03-24T02:14:19.467Z,999.19
2023-03-24T02:15:19.505Z,999.18
2023-03-24T02:16:19.478Z,999.13
2023-03-24T02:17:19.444Z,999.15
2023-03-24T02:18:19.498Z,999.17
2023-03-24T02:19:19.428Z,999.12
2023-03-24T02:20:19.427Z,999.14
2023-03-24T02:21:19.418Z,999.16
2023-03-24T02:22:19.403Z,999.13
2023-03-24T02:23:19.401Z,999.17
2023-03-24T02:24:19.392Z,999.16
2023-03-24T02:25:19.386Z,999.14
2023-03-24T02:26:19.405Z,999.11
2023-03-24T02:27:19.367Z,999.11
2023-03-24T02:28:19.358Z,999.10
2023-03-24T02:29:19.352Z,999.07
2023-03-24T02:30:19.345Z,999.03
2023-03-24T02:31:19.362Z,999.00
2023-03-24T02:32:19.328Z,998.94
2023-03-24T02:33:19.319Z,998.94
2023-03-24T02:34:19.316Z,998.88
2023-03-24T02:35:19.307Z,998.92
2023-03-24T02:36:19.330Z,998.85
2023-03-24T02:37:19.292Z,998.85
2023-03-24T02:38:19.280Z,998.85
2023-03-24T02:39:19.275Z,998.83
2023-03-24T02:40:19.268Z,998.83
2023-03-24T02:41:19.261Z,998.81
2023-03-24T02:42:19.254Z,998.81
2023-03-24T02:43:19.255Z,998.80
2023-03-24T02:44:19.241Z,998.79
2023-03-24T02:45:19.228Z,998.85
2023-03-24T02:46:19.279Z,998.83
2023-03-24T02:47:19.212Z,998.80
2023-03-24T02:48:19.201Z,998.85
2023-03-24T02:49:19.195Z,998.87
2023-03-24T02:50:19.185Z,998.86
2023-03-24T02:51:19.177Z,998.89
2023-03-24T02:52:19.173Z,998.86
2023-03-24T02:53:19.187Z,998.90
2023-03-24T02:54:19.153Z,998.87
2023-03-24T02:55:19.157Z,998.86
2023-03-24T02:56:19.138Z,998.87
2023-03-24T02:57:19.130Z,998.84
2023-03-24T02:58:19.131Z,998.88
2023-03-24T02:59:19.121Z,998.87
2023-03-24T03:00:19.114Z,998.85
2023-03-24T03:01:19.145Z,998.85
2023-03-24T03:02:19.091Z,998.80
2023-03-24T03:03:19.086Z,998.77
2023-03-24T03:04:19.097Z,998.76
2023-03-24T03:05:19.073Z,998.74
2023-03-24T03:06:19.059Z,998.74
2023-03-24T03:07:19.053Z,998.70
2023-03-24T03:08:19.097Z,998.72
2023-03-24T03:09:19.036Z,998.70
2023-03-24T03:10:19.029Z,998.70
2023-03-24T03:11:19.027Z,998.67
2023-03-24T03:12:19.015Z,998.62
2023-03-24T03:13:19.005Z,998.59
2023-03-24T03:14:18.998Z,998.61
2023-03-24T03:15:18.990Z,998.54
2023-03-24T03:16:19.047Z,998.55
2023-03-24T03:17:18.993Z,998.52
2023-03-24T03:18:18.965Z,998.51
2023-03-24T03:19:18.968Z,998.47
2023-03-24T03:20:18.952Z,998.49
2023-03-24T03:21:18.947Z,998.51
2023-03-24T03:22:18.936Z,998.53
2023-03-24T03:23:18.941Z,998.50
2023-03-24T03:24:18.923Z,998.50
2023-03-24T03:25:18.958Z,998.47
2023-03-24T03:26:18.908Z,998.49
2023-03-24T03:27:18.910Z,998.46
2023-03-24T03:28:18.900Z,998.48
2023-03-24T03:29:18.888Z,998.44
2023-03-24T03:30:18.882Z,998.43
2023-03-24T03:31:18.898Z,998.36
2023-03-24T03:32:18.879Z,998.37
2023-03-24T03:33:18.860Z,998.37
2023-03-24T03:34:18.852Z,998.37
2023-03-24T03:35:18.842Z,998.36
2023-03-24T03:36:18.836Z,998.39
2023-03-24T03:37:18.848Z,998.32
2023-03-24T03:38:18.820Z,998.31
2023-03-24T03:39:18.813Z,998.28
2023-03-24T03:40:18.821Z,998.24
2023-03-24T03:41:18.801Z,998.24
2023-03-24T03:42:18.788Z,998.19
2023-03-24T03:43:18.781Z,998.18
2023-03-24T03:44:18.780Z,998.17
2023-03-24T03:45:18.763Z,998.12
2023-03-24T03:46:18.806Z,998.09
2023-03-24T03:47:18.749Z,998.08
2023-03-24T03:48:18.743Z,998.11
2023-03-24T03:49:18.735Z,998.11
2023-03-24T03:50:18.726Z,998.06
2023-03-24T03:51:18.731Z,998.05
2023-03-24T03:52:18.748Z,998.09
2023-03-24T03:53:18.703Z,998.05
2023-03-24T03:54:18.695Z,998.04
2023-03-24T03:55:18.688Z,998.08
2023-03-24T03:56:18.681Z,998.06
2023-03-24T03:57:18.671Z,998.06
2023-03-24T03:58:18.668Z,997.98
2023-03-24T03:59:18.658Z,998.00
2023-03-24T04:00:18.648Z,998.03
2023-03-24T04:01:18.666Z,998.00
2023-03-24T04:02:18.661Z,998.00
2023-03-24T04:03:18.727Z,997.98
2023-03-24T04:04:18.621Z,997.93
2023-03-24T04:05:18.609Z,997.96
2023-03-24T04:06:18.600Z,997.95
2023-03-24T04:07:18.598Z,997.92
2023-03-24T04:08:18.583Z,997.87
2023-03-24T04:09:18.576Z,997.86
2023-03-24T04:10:18.568Z,997.85
2023-03-24T04:11:18.574Z,997.82
2023-03-24T04:12:18.589Z,997.80
2023-03-24T04:13:18.543Z,997.74
2023-03-24T04:14:18.560Z,997.70
2023-03-24T04:15:18.531Z,997.73
2023-03-24T04:16:18.532Z,997.68
2023-03-24T04:17:18.515Z,997.70
2023-03-24T04:18:18.513Z,997.68
2023-03-24T04:19:18.500Z,997.68
2023-03-24T04:20:18.489Z,997.70
2023-03-24T04:21:18.506Z,997.62
2023-03-24T04:22:18.481Z,997.57
2023-03-24T04:23:18.470Z,997.58
2023-03-24T04:24:18.458Z,997.58
2023-03-24T04:25:18.452Z,997.59
2023-03-24T04:26:18.442Z,997.63
2023-03-24T04:27:18.436Z,997.62
2023-03-24T04:28:18.429Z,997.55
2023-03-24T04:29:18.423Z,997.57
2023-03-24T04:30:18.414Z,997.55
2023-03-24T04:31:18.409Z,997.56
2023-03-24T04:32:18.394Z,997.54
2023-03-24T04:33:18.395Z,997.51
2023-03-24T04:34:18.392Z,997.50
2023-03-24T04:35:18.376Z,997.49
2023-03-24T04:36:18.392Z,997.46
2023-03-24T04:37:18.357Z,997.46
2023-03-24T04:38:18.410Z,997.42
2023-03-24T04:39:18.344Z,997.41
2023-03-24T04:40:18.337Z,997.40
2023-03-24T04:41:18.326Z,997.35
2023-03-24T04:42:18.318Z,997.38
2023-03-24T04:43:18.310Z,997.43
2023-03-24T04:44:18.300Z,997.40
2023-03-24T04:45:18.309Z,997.38
2023-03-24T04:46:18.371Z,997.41
2023-03-24T04:47:18.288Z,997.41
2023-03-24T04:48:18.282Z,997.42
2023-03-24T04:49:18.263Z,997.43
2023-03-24T04:50:18.255Z,997.39
2023-03-24T04:51:18.246Z,997.35
2023-03-24T04:52:18.311Z,997.34
2023-03-24T04:53:18.231Z,997.32
2023-03-24T04:54:18.222Z,997.36
2023-03-24T04:55:18.218Z,997.25
2023-03-24T04:56:18.208Z,997.27
2023-03-24T04:57:18.202Z,997.30
2023-03-24T04:58:18.189Z,997.25
2023-03-24T04:59:18.186Z,997.28
2023-03-24T05:00:18.175Z,997.26
2023-03-24T05:01:18.235Z,997.25
2023-03-24T05:02:18.992Z,997.22
2023-03-24T05:03:18.160Z,997.21
2023-03-24T05:04:18.227Z,997.20
2023-03-24T05:05:18.136Z,997.18
2023-03-24T05:06:18.136Z,997.14
2023-03-24T05:07:18.122Z,997.10
2023-03-24T05:08:18.113Z,997.07
2023-03-24T05:09:18.106Z,997.11
2023-03-24T05:10:19.544Z,997.09
2023-03-24T05:11:18.096Z,997.14
2023-03-24T05:12:18.079Z,997.14
2023-03-24T05:13:18.079Z,997.13
2023-03-24T05:14:18.066Z,997.15
2023-03-24T05:15:18.059Z,997.17
2023-03-24T05:16:18.070Z,997.08
2023-03-24T05:17:18.054Z,997.09
2023-03-24T05:18:18.036Z,997.06
2023-03-24T05:19:18.028Z,997.05
2023-03-24T05:20:18.024Z,997.07
2023-03-24T05:21:18.013Z,997.06
2023-03-24T05:22:18.003Z,997.07
2023-03-24T05:23:18.001Z,997.02
2023-03-24T05:24:17.994Z,997.01
2023-03-24T05:25:17.987Z,997.05
2023-03-24T05:26:17.975Z,997.00
2023-03-24T05:27:17.966Z,997.02
2023-03-24T05:28:17.962Z,996.90
2023-03-24T05:29:17.951Z,997.06
2023-03-24T05:30:17.958Z,997.06
2023-03-24T05:31:17.989Z,997.04
2023-03-24T05:32:17.927Z,997.06
2023-03-24T05:33:17.918Z,997.02
2023-03-24T05:34:17.910Z,997.01
2023-03-24T05:35:17.908Z,997.06
2023-03-24T05:36:17.938Z,997.07
2023-03-24T05:37:17.897Z,997.09
2023-03-24T05:38:17.880Z,997.07
2023-03-24T05:39:17.884Z,997.04
2023-03-24T05:40:17.879Z,997.00
2023-03-24T05:41:17.867Z,997.01
2023-03-24T05:42:17.851Z,996.95
2023-03-24T05:43:17.845Z,997.00
2023-03-24T05:44:17.836Z,997.02
2023-03-24T05:45:17.829Z,997.01
2023-03-24T05:46:17.864Z,997.03
2023-03-24T05:47:17.819Z,996.97
2023-03-24T05:48:17.807Z,996.97
2023-03-24T05:49:17.797Z,996.91
2023-03-24T05:50:17.790Z,996.90
2023-03-24T05:51:17.790Z,996.91
2023-03-24T05:52:17.782Z,996.82
2023-03-24T05:53:17.769Z,996.91
2023-03-24T05:54:17.768Z,996.89
2023-03-24T05:55:17.756Z,996.86
2023-03-24T05:56:17.767Z,996.92
2023-03-24T05:57:17.737Z,996.89
2023-03-24T05:58:17.732Z,996.91
2023-03-24T05:59:17.723Z,996.92
2023-03-24T06:00:17.716Z,996.89
2023-03-24T06:01:17.710Z,996.85
2023-03-24T06:02:17.715Z,996.87
2023-03-24T06:03:18.018Z,996.82
2023-03-24T06:04:17.720Z,996.83
2023-03-24T06:05:17.692Z,996.86
2023-03-24T06:06:17.683Z,996.78
2023-03-24T06:07:17.665Z,996.78
2023-03-24T06:08:17.665Z,996.77
2023-03-24T06:09:17.651Z,996.73
2023-03-24T06:10:17.647Z,996.76
2023-03-24T06:11:17.638Z,996.75
2023-03-24T06:12:17.629Z,996.74
2023-03-24T06:13:17.680Z,996.76
2023-03-24T06:14:17.616Z,996.74
2023-03-24T06:15:17.649Z,996.71
2023-03-24T06:16:17.649Z,996.70
2023-03-24T06:17:17.600Z,996.74
2023-03-24T06:18:17.582Z,996.69
2023-03-24T06:19:17.581Z,996.66
2023-03-24T06:20:17.569Z,996.58
2023-03-24T06:21:17.560Z,996.59
2023-03-24T06:22:17.553Z,996.57
2023-03-24T06:23:17.546Z,996.59
2023-03-24T06:24:17.539Z,996.53
2023-03-24T06:25:17.530Z,996.55
2023-03-24T06:26:17.526Z,996.49
2023-03-24T06:27:17.524Z,996.48
2023-03-24T06:28:17.506Z,996.51
2023-03-24T06:29:17.503Z,996.53
2023-03-24T06:30:17.506Z,996.50
2023-03-24T06:31:17.551Z,996.49
2023-03-24T06:32:17.485Z,996.51
2023-03-24T06:33:17.477Z,996.51
2023-03-24T06:34:17.467Z,996.52
2023-03-24T06:35:17.472Z,996.51
2023-03-24T06:36:17.452Z,996.48
2023-03-24T06:37:17.448Z,996.45
2023-03-24T06:38:17.439Z,996.48
2023-03-24T06:39:17.432Z,996.52
2023-03-24T06:40:17.461Z,996.49
2023-03-24T06:41:17.417Z,996.48
2023-03-24T06:42:17.410Z,996.50
2023-03-24T06:43:17.403Z,996.51
2023-03-24T06:44:17.404Z,996.52
2023-03-24T06:45:17.462Z,996.52
2023-03-24T06:46:17.449Z,996.54
2023-03-24T06:47:17.378Z,996.51
2023-03-24T06:48:17.393Z,996.49
2023-03-24T06:49:17.386Z,996.46
2023-03-24T06:50:17.358Z,996.43
2023-03-24T06:51:17.357Z,996.50
2023-03-24T06:52:17.343Z,996.50
2023-03-24T06:53:17.332Z,996.44
2023-03-24T06:54:17.326Z,996.43
2023-03-24T06:55:17.319Z,996.41
2023-03-24T06:56:17.380Z,996.40
2023-03-24T06:57:17.299Z,996.38
2023-03-24T06:58:17.301Z,996.43
2023-03-24T06:59:17.292Z,996.43
2023-03-24T07:00:17.290Z,996.41
2023-03-24T07:01:17.291Z,996.32
2023-03-24T07:02:17.269Z,996.30
2023-03-24T07:03:17.360Z,996.29
2023-03-24T07:04:17.260Z,996.33
2023-03-24T07:05:17.248Z,996.32
2023-03-24T07:06:17.243Z,996.28
2023-03-24T07:07:44.746Z,996.26
2023-03-24T07:09:17.228Z,996.21
2023-03-24T07:10:17.216Z,996.24
2023-03-24T07:11:17.212Z,996.23
2023-03-24T07:12:17.204Z,996.27
2023-03-24T07:13:17.192Z,996.20
2023-03-24T07:14:17.186Z,996.25
2023-03-24T07:15:17.179Z,996.20
2023-03-24T07:16:17.185Z,996.14
2023-03-24T07:17:17.234Z,996.11
2023-03-24T07:18:17.205Z,996.11
2023-03-24T07:19:17.157Z,996.08
2023-03-24T07:20:17.146Z,996.05
2023-03-24T07:21:17.142Z,996.06
2023-03-24T07:22:17.131Z,996.05
2023-03-24T07:23:17.126Z,996.08
2023-03-24T07:24:17.121Z,996.08
2023-03-24T07:25:17.117Z,996.04
2023-03-24T07:26:17.186Z,996.07
2023-03-24T07:27:17.136Z,996.02
2023-03-24T07:28:17.093Z,996.04
2023-03-24T07:29:17.089Z,996.01
2023-03-24T07:30:19.145Z,995.97
2023-03-24T07:31:17.126Z,995.97
2023-03-24T07:32:17.070Z,996.01
2023-03-24T07:33:17.064Z,996.00
2023-03-24T07:34:17.055Z,996.00
2023-03-24T07:35:17.049Z,995.96
2023-03-24T07:36:17.118Z,996.02
2023-03-24T07:37:17.036Z,995.97
2023-03-24T07:38:17.144Z,995.94
2023-03-24T07:39:17.033Z,995.89
2023-03-24T07:40:17.021Z,995.92
2023-03-24T07:41:17.011Z,995.91
2023-03-24T07:42:17.007Z,995.97
2023-03-24T07:43:17.002Z,995.90
2023-03-24T07:44:16.996Z,995.91
2023-03-24T07:45:16.990Z,995.99
2023-03-24T07:46:17.098Z,996.03
2023-03-24T07:47:17.097Z,996.03
2023-03-24T07:48:17.028Z,996.02
2023-03-24T07:49:19.804Z,995.92
2023-03-24T07:50:16.961Z,995.92
2023-03-24T07:51:16.958Z,995.95
2023-03-24T07:52:16.948Z,995.92
2023-03-24T07:53:16.946Z,996.14
2023-03-24T07:54:16.943Z,996.06
2023-03-24T07:55:16.935Z,996.03
2023-03-24T07:56:16.925Z,996.02
2023-03-24T07:57:17.030Z,995.97
2023-03-24T07:58:16.951Z,995.99
2023-03-24T07:59:16.935Z,995.99
2023-03-24T08:00:16.901Z,996.00
2023-03-24T08:01:16.895Z,995.95
2023-03-24T08:02:16.987Z,995.84
2023-03-24T08:03:17.015Z,995.88
2023-03-24T08:04:16.986Z,995.82
2023-03-24T08:05:16.875Z,995.85
2023-03-24T08:06:16.870Z,995.85
2023-03-24T08:07:16.861Z,995.91
2023-03-24T08:08:16.861Z,995.86
2023-03-24T08:09:16.849Z,995.91
2023-03-24T08:10:16.838Z,995.83
2023-03-24T08:11:16.867Z,995.91
2023-03-24T08:12:20.441Z,995.95
2023-03-24T08:13:16.826Z,995.90
2023-03-24T08:14:16.814Z,995.88
2023-03-24T08:15:16.813Z,995.98
2023-03-24T08:16:16.900Z,995.95
2023-03-24T08:17:16.804Z,995.95
2023-03-24T08:18:16.796Z,995.91
2023-03-24T08:19:16.790Z,995.93
2023-03-24T08:20:16.786Z,995.95
2023-03-24T08:21:16.772Z,995.94
2023-03-24T08:22:16.767Z,995.91
2023-03-24T08:23:16.808Z,995.92
2023-03-24T08:24:16.753Z,995.94
2023-03-24T08:25:16.751Z,995.95
2023-03-24T08:26:16.740Z,995.86
2023-03-24T08:27:16.735Z,995.91
2023-03-24T08:28:16.725Z,995.98
2023-03-24T08:29:16.741Z,995.95
2023-03-24T08:30:16.822Z,995.83
2023-03-24T08:31:16.750Z,995.84
2023-03-24T08:32:16.710Z,995.85
2023-03-24T08:33:16.760Z,995.89
2023-03-24T08:34:16.692Z,995.87
2023-03-24T08:35:16.687Z,995.82
2023-03-24T08:36:16.738Z,995.83
2023-03-24T08:37:16.681Z,995.77
2023-03-24T08:38:18.740Z,995.72
2023-03-24T08:39:16.660Z,995.64
2023-03-24T08:40:16.662Z,995.68
2023-03-24T08:41:16.649Z,995.73
2023-03-24T08:42:16.637Z,995.87
2023-03-24T08:43:16.633Z,995.89
2023-03-24T08:44:16.629Z,995.85
2023-03-24T08:45:23.807Z,995.94
2023-03-24T08:47:10.064Z,995.85
2023-03-24T08:48:10.074Z,995.82
2023-03-24T08:49:10.045Z,995.83
2023-03-24T08:50:10.043Z,995.86
2023-03-24T08:51:10.022Z,995.87
2023-03-24T08:52:10.029Z,995.91
2023-03-24T08:53:10.009Z,995.84
2023-03-24T08:54:10.003Z,995.89
2023-03-24T08:55:10.003Z,995.88
2023-03-24T08:56:10.004Z,995.91
2023-03-24T08:57:10.000Z,995.85
2023-03-24T08:58:09.979Z,995.84
2023-03-24T08:59:09.975Z,995.84
2023-03-24T09:00:09.969Z,995.85
2023-03-24T09:01:10.006Z,995.92
2023-03-24T09:02:09.951Z,995.86
2023-03-24T09:03:09.961Z,995.89
2023-03-24T09:04:09.951Z,995.89
2023-03-24T09:05:09.950Z,995.97
2023-03-24T09:06:09.930Z,995.94
2023-03-24T09:07:09.960Z,995.94
2023-03-24T09:08:09.914Z,995.94
2023-03-24T09:09:09.909Z,996.02
2023-03-24T09:10:09.912Z,995.98
2023-03-24T09:11:09.904Z,996.04
2023-03-24T09:12:09.892Z,996.02
2023-03-24T09:13:09.893Z,996.03
2023-03-24T09:14:09.877Z,996.06
2023-03-24T09:15:10.770Z,995.98
2023-03-24T09:16:09.926Z,996.04
2023-03-24T09:17:09.858Z,996.00
2023-03-24T09:18:09.854Z,996.00
2023-03-24T09:19:09.844Z,996.10
2023-03-24T09:20:09.845Z,996.08
2023-03-24T09:21:09.832Z,996.09
2023-03-24T09:22:09.829Z,996.09
2023-03-24T09:23:09.825Z,996.11
2023-03-24T09:24:09.818Z,996.10
2023-03-24T09:25:09.820Z,996.13
2023-03-24T09:26:09.816Z,996.16
2023-03-24T09:27:09.804Z,996.12
2023-03-24T09:28:09.795Z,996.20
2023-03-24T09:29:09.795Z,996.24
2023-03-24T09:30:09.782Z,996.27
2023-03-24T09:31:09.822Z,996.26
2023-03-24T09:32:09.779Z,996.31
2023-03-24T09:33:09.819Z,996.31
2023-03-24T09:34:09.767Z,996.32
2023-03-24T09:35:09.757Z,996.31
2023-03-24T09:36:09.810Z,996.36
2023-03-24T09:37:09.744Z,996.28
2023-03-24T09:38:09.738Z,996.32
2023-03-24T09:39:09.732Z,996.32
2023-03-24T09:40:09.727Z,996.28
2023-03-24T09:41:09.721Z,996.31
2023-03-24T09:42:09.718Z,996.32
2023-03-24T09:43:09.711Z,996.28
2023-03-24T09:44:09.714Z,996.26
2023-03-24T09:45:09.704Z,996.30
2023-03-24T09:46:09.718Z,996.19
2023-03-24T09:47:09.695Z,996.35
2023-03-24T09:48:09.729Z,996.37
2023-03-24T09:49:09.686Z,996.24
2023-03-24T09:50:09.694Z,996.27
2023-03-24T09:51:09.676Z,996.34
2023-03-24T09:52:09.667Z,996.35
2023-03-24T09:53:09.688Z,996.42
2023-03-24T09:54:09.698Z,996.40
2023-03-24T09:55:09.662Z,996.34
2023-03-24T09:56:09.667Z,996.36
2023-03-24T09:57:09.687Z,996.36
2023-03-24T09:58:09.640Z,996.33
2023-03-24T09:59:09.636Z,996.34
2023-03-24T10:00:09.632Z,996.34
2023-03-24T10:01:09.643Z,996.39
2023-03-24T10:02:09.622Z,996.42
2023-03-24T10:03:09.662Z,996.47
2023-03-24T10:04:09.635Z,996.44
2023-03-24T10:05:09.628Z,996.40
2023-03-24T10:06:09.607Z,996.43
2023-03-24T10:07:09.604Z,996.47
2023-03-24T10:08:09.597Z,996.42
2023-03-24T10:09:09.589Z,996.43
2023-03-24T10:10:09.594Z,996.40
2023-03-24T10:11:09.596Z,996.42
2023-03-24T10:12:09.589Z,996.45
2023-03-24T10:13:09.589Z,996.57
2023-03-24T10:14:09.572Z,996.44
2023-03-24T10:15:09.586Z,996.44
2023-03-24T10:16:09.602Z,996.47
2023-03-24T10:17:09.557Z,996.55
2023-03-24T10:18:09.571Z,996.51
2023-03-24T10:19:11.408Z,996.45
2023-03-24T10:20:09.566Z,996.45
2023-03-24T10:21:09.536Z,996.48
2023-03-24T10:22:09.528Z,996.49
2023-03-24T10:23:09.528Z,996.41
2023-03-24T10:24:09.520Z,996.48
2023-03-24T10:25:09.538Z,996.44
2023-03-24T10:26:09.516Z,996.42
2023-03-24T10:27:09.542Z,996.33
2023-03-24T10:28:09.505Z,996.43
2023-03-24T10:29:09.503Z,996.41
2023-03-24T10:30:09.521Z,996.39
2023-03-24T10:31:09.493Z,996.46
2023-03-24T10:32:09.545Z,996.44
2023-03-24T10:33:09.517Z,996.46
2023-03-24T10:34:09.478Z,996.42
2023-03-24T10:35:09.554Z,996.36
2023-03-24T10:36:09.492Z,996.41
2023-03-24T10:37:09.470Z,996.40
2023-03-24T10:38:09.465Z,996.43
2023-03-24T10:39:18.566Z,996.37
2023-03-24T10:40:09.457Z,996.37
2023-03-24T10:41:09.455Z,996.37
2023-03-24T10:42:09.454Z,996.38
2023-03-24T10:43:09.533Z,996.37
2023-03-24T10:44:09.444Z,996.37
2023-03-24T10:45:09.438Z,996.40
2023-03-24T10:46:09.544Z,996.37
2023-03-24T10:47:09.430Z,996.47
2023-03-24T10:48:09.655Z,996.48
2023-03-24T10:49:09.422Z,996.49
2023-03-24T10:50:12.838Z,996.51
2023-03-24T10:51:09.416Z,996.43
2023-03-24T10:52:09.416Z,996.51
2023-03-24T10:53:09.408Z,996.44
2023-03-24T10:54:09.404Z,996.52
2023-03-24T10:55:09.402Z,996.53
2023-03-24T10:56:09.396Z,996.53
2023-03-24T10:57:09.454Z,996.43
2023-03-24T10:58:09.387Z,996.45
2023-03-24T10:59:09.385Z,996.47
2023-03-24T11:00:09.380Z,996.55
2023-03-24T11:01:09.439Z,996.52
2023-03-24T11:02:09.407Z,996.47
2023-03-24T11:03:09.423Z,996.50
2023-03-24T11:04:09.371Z,996.47
2023-03-24T11:05:09.363Z,996.57
2023-03-24T11:06:09.353Z,996.49
2023-03-24T11:07:09.349Z,996.64
2023-03-24T11:08:09.348Z,996.58
2023-03-24T11:09:09.351Z,996.64
2023-03-24T11:10:09.351Z,996.59
2023-03-24T11:11:09.338Z,996.69
2023-03-24T11:12:09.329Z,996.71
2023-03-24T11:13:09.325Z,996.65
2023-03-24T11:14:09.320Z,996.70
2023-03-24T11:15:17.995Z,996.62
2023-03-24T11:16:09.332Z,996.64
2023-03-24T11:17:09.353Z,996.69
2023-03-24T11:18:09.380Z,996.63
2023-03-24T11:19:09.302Z,996.73
2023-03-24T11:20:09.296Z,996.69
2023-03-24T11:21:09.306Z,996.63
2023-03-24T11:22:09.333Z,996.60
2023-03-24T11:23:09.295Z,996.64
2023-03-24T11:24:09.280Z,996.62
2023-03-24T11:25:09.276Z,996.67
2023-03-24T11:26:09.277Z,996.62
2023-03-24T11:27:09.272Z,996.62
2023-03-24T11:28:09.264Z,996.62
2023-03-24T11:29:09.260Z,996.69
2023-03-24T11:30:09.259Z,996.68
2023-03-24T11:31:09.281Z,996.68
2023-03-24T11:32:09.319Z,996.73
2023-03-24T11:33:09.248Z,996.74
2023-03-24T11:34:09.356Z,996.71
2023-03-24T11:35:09.248Z,996.71
2023-03-24T11:36:09.533Z,996.69
2023-03-24T11:37:09.247Z,996.76
2023-03-24T11:38:09.238Z,996.76
2023-03-24T11:39:09.222Z,996.75
2023-03-24T11:40:09.221Z,996.80
2023-03-24T11:41:09.218Z,996.76
2023-03-24T11:42:09.210Z,996.77
2023-03-24T11:43:09.208Z,996.75
2023-03-24T11:44:09.204Z,996.66
2023-03-24T11:45:09.201Z,996.77
2023-03-24T11:46:09.271Z,996.74
2023-03-24T11:47:09.202Z,996.72
2023-03-24T11:48:09.228Z,996.78
2023-03-24T11:49:09.188Z,996.75
2023-03-24T11:50:09.242Z,996.80
2023-03-24T11:51:09.175Z,996.82
2023-03-24T11:52:09.181Z,996.85
2023-03-24T11:53:09.170Z,996.89
2023-03-24T11:54:09.167Z,996.89
2023-03-24T11:55:09.172Z,996.78
2023-03-24T11:56:09.174Z,996.90
2023-03-24T11:57:09.175Z,996.92
2023-03-24T11:58:09.150Z,996.96
2023-03-24T11:59:09.167Z,996.99
2023-03-24T12:00:09.144Z,996.95
2023-03-24T12:01:09.142Z,996.99
2023-03-24T12:02:09.142Z,996.95
2023-03-24T12:03:09.252Z,996.93
2023-03-24T12:04:09.129Z,996.90
2023-03-24T12:05:09.132Z,996.83
2023-03-24T12:06:09.154Z,996.80
2023-03-24T12:07:09.116Z,996.78
2023-03-24T12:08:09.112Z,996.73
2023-03-24T12:09:09.118Z,996.72
2023-03-24T12:10:09.112Z,996.70
2023-03-24T12:11:09.105Z,996.74
2023-03-24T12:12:09.112Z,996.71
2023-03-24T12:13:13.456Z,996.71
2023-03-24T12:14:09.112Z,996.67
2023-03-24T12:15:20.730Z,996.63
2023-03-24T12:16:09.150Z,996.71
2023-03-24T12:17:09.097Z,996.76
2023-03-24T12:18:09.096Z,996.63
2023-03-24T12:19:09.081Z,996.75
2023-03-24T12:20:09.088Z,996.74
2023-03-24T12:21:09.070Z,996.85
2023-03-24T12:22:09.069Z,996.89
2023-03-24T12:23:09.061Z,996.91
2023-03-24T12:24:09.060Z,997.00
2023-03-24T12:25:09.114Z,997.00
2023-03-24T12:26:09.064Z,997.01
2023-03-24T12:27:09.049Z,996.95